Pointe-des-Monts, Canada
Current Conditions -  °F | °C
As of 3:00 AM on Sunday 26 Oct 2014 (Local Time) from CYBC Reporting Station
Light Rain Light Rain  
Wind Chill: 29°   Ceiling: 600
Heat Index: 37°   Visibility: 9mi
Dew Point: 36°   Wind: 15mph
Humidity: 93%   Direction: 70°ENE
Pressure: 29.46"   Gusts: 25mph
Location:  49.32°N, 67.38°W
Report Text: CYBC 260700Z AUTO 07013G22KT 9SM -RA OVC006 03/02 A2946 RMK PCPN 1.0MM PAST HR SLP978
Loading
Personal Weather Stations






























Interactive Weather Map
Tropical Storm Tracking
New forecast layout! Learn more

10-Day Weather Forecast

Advertisements
Track Severe Weather on mobile